Northwestern — WDE5199 — position and weather

sailwx.info

Track history (hours):
 
Tides and Currents Weather Stations Pressure Air Temp Water Temp Dewpoint Dewpoint Depression Visibility Wind Speed Wind Dir Waves Ship Positions

Northwestern

Owner: Northwestern LLC, Seattle, WA. More information available from US FCC via Universal Licensing System and Coast Guard Vessel Documentation Center.

Last reported at 2016-May-27 23:33 UTC. Time now 2016-May-28 00:07 UTC.
Position N 47°40' W 122°23'.

Length 38 m; draft 4.3 m.

Type: Fishing. MMSI: 367363350.

Date/timePositionNaut miles runAvg speedWind from/ knotsBaromVisibWave heightAir tempDewpointWater temp
2016-May-27 23:33N 47°40' W 122°23'0 0.0
2016-May-27 22:33N 47°40' W 122°23'0 0.0
2016-May-27 21:33N 47°40' W 122°23'0 0.0
2016-May-27 20:33N 47°40' W 122°23'0 0.0
2016-May-27 19:33N 47°40' W 122°23'0 0.0
2016-May-27 18:33N 47°40' W 122°23'0 0.0
2016-May-27 17:33N 47°40' W 122°23'0 0.0
2016-May-27 16:33N 47°40' W 122°23'0 0.0
2016-May-27 15:34N 47°40' W 122°23'0 0.0
2016-May-27 14:33N 47°40' W 122°23'0 0.0
2016-May-27 13:33N 47°40' W 122°23'0 0.0
2016-May-27 12:33N 47°40' W 122°23'0 0.0
2016-May-27 11:33N 47°40' W 122°23'0 0.0
2016-May-27 10:33N 47°40' W 122°23'0 0.0
2016-May-27 09:33N 47°40' W 122°23'0 0.0
2016-May-27 08:33N 47°40' W 122°23'0 0.0
2016-May-27 07:34N 47°40' W 122°23'0 0.0
2016-May-27 06:33N 47°40' W 122°23'0 0.0
2016-May-27 05:33N 47°40' W 122°23'0 0.0
2016-May-27 04:33N 47°40' W 122°23'0 0.0
2016-May-27 03:33N 47°40' W 122°23'0 0.0
2016-May-27 02:33N 47°40' W 122°23'0 0.0
2016-May-27 01:33N 47°40' W 122°23'0 0.0
2016-May-27 00:33N 47°40' W 122°23'0 0.0
2016-May-26 23:33N 47°40' W 122°23'0 0.0
2016-May-26 22:33N 47°40' W 122°23'0 0.0
2016-May-26 21:34N 47°40' W 122°23'0 0.0
2016-May-26 20:33N 47°40' W 122°23'0 0.0
2016-May-26 19:33N 47°40' W 122°23'0 0.0
2016-May-26 18:33N 47°40' W 122°23'0 0.0
2016-May-26 17:33N 47°40' W 122°23'0 0.0
2016-May-26 16:33N 47°40' W 122°23'0 0.0
2016-May-26 15:33N 47°40' W 122°23'0 0.0
2016-May-26 14:33N 47°40' W 122°23'0 0.0
2016-May-26 13:33N 47°40' W 122°23'0 0.0
2016-May-26 12:34N 47°40' W 122°23'0 0.0
2016-May-26 11:33N 47°40' W 122°23'0 0.0
2016-May-26 10:33N 47°40' W 122°23'0 0.0
2016-May-26 09:33N 47°40' W 122°23'0 0.0
2016-May-26 08:34N 47°40' W 122°23'0 0.0
2016-May-26 07:33N 47°40' W 122°23'0 0.4
2016-May-26 06:33N 47°40' W 122°24'5 4.6
2016-May-26 05:33N 47°44' W 122°25'5 5.0
2016-May-26 04:32N 47°50' W 122°25'6 6.1
2016-May-26 03:33N 47°55' W 122°21'1 0.7
2016-May-26 02:33N 47°55' W 122°20'4 4.0
2016-May-26 01:34N 47°59' W 122°18'2 1.5
2016-May-26 00:33N 48°00' W 122°17'6 5.8
2016-May-25 23:33N 47°55' W 122°21'8 8.1
2016-May-25 22:33N 47°48' W 122°25'7 7.0
2016-May-25 21:33N 47°41' W 122°25'1 1.2
2016-May-25 20:33N 47°40' W 122°23'0 0.0
2016-May-25 19:33N 47°40' W 122°23'0 0.0
2016-May-25 18:33N 47°40' W 122°23'0 0.0
2016-May-25 17:33N 47°40' W 122°23'0 0.0
2016-May-25 16:34N 47°40' W 122°23'0 0.0
2016-May-25 15:33N 47°40' W 122°23'0 0.0
2016-May-25 14:33N 47°40' W 122°23'0 0.0
2016-May-25 13:33N 47°40' W 122°23'0 0.0
2016-May-25 12:33N 47°40' W 122°23'0 0.0
2016-May-25 11:33N 47°40' W 122°23'0 0.0
2016-May-25 10:33N 47°40' W 122°23'0 0.0
2016-May-25 09:33N 47°40' W 122°23'0 0.0
2016-May-25 08:33N 47°40' W 122°23'0 0.0
2016-May-25 07:33N 47°40' W 122°23'0 0.0
2016-May-25 06:33N 47°40' W 122°23'0 0.0
2016-May-25 05:33N 47°40' W 122°23'0 0.0
2016-May-25 04:33N 47°40' W 122°23'0 0.0
2016-May-25 03:34N 47°40' W 122°23'0 0.0
2016-May-25 02:34N 47°40' W 122°23'0 0.0
2016-May-25 01:33N 47°40' W 122°23'0 0.0
2016-May-25 00:33N 47°40' W 122°23'0 0.0
2016-May-24 23:33N 47°40' W 122°23'0 0.0
2016-May-24 22:33N 47°40' W 122°23'0 0.0
2016-May-24 21:33N 47°40' W 122°23'0 0.0
2016-May-24 20:33N 47°40' W 122°23'0 0.0
2016-May-24 19:33N 47°40' W 122°23'0 0.0
2016-May-24 18:33N 47°40' W 122°23'0 0.0
2016-May-24 17:33N 47°40' W 122°23'0 0.0
2016-May-24 16:33N 47°40' W 122°23'0 0.0
2016-May-24 15:33N 47°40' W 122°23'0 0.0
2016-May-24 14:33N 47°40' W 122°23'0 0.0
2016-May-24 13:33N 47°40' W 122°23'0 0.0
2016-May-24 12:33N 47°40' W 122°23'0 0.0
2016-May-24 11:34N 47°40' W 122°23'0 0.0
2016-May-24 10:33N 47°40' W 122°23'0 0.0
2016-May-24 09:33N 47°40' W 122°23'0 0.0
2016-May-24 08:33N 47°40' W 122°23'0 0.0
2016-May-24 07:33N 47°40' W 122°23'0 0.0
2016-May-24 06:33N 47°40' W 122°23'0 0.0
2016-May-24 05:33N 47°40' W 122°23'0 0.0
2016-May-24 04:33N 47°40' W 122°23'0 0.0
2016-May-24 03:34N 47°40' W 122°23'0 0.0
2016-May-24 02:33N 47°40' W 122°23'0 0.0
2016-May-24 01:33N 47°40' W 122°23'0 0.0
2016-May-24 00:33N 47°40' W 122°23'0 0.0
2016-May-23 23:33N 47°40' W 122°23'0 0.0
2016-May-23 22:33N 47°40' W 122°23'0 0.0
2016-May-23 21:33N 47°40' W 122°23'0 0.0
2016-May-23 20:33N 47°40' W 122°23'0 0.0
2016-May-23 19:33N 47°40' W 122°23'  
Track history (hours):
 
Tides and Currents Weather Stations Pressure Air Temp Water Temp Dewpoint Dewpoint Depression Visibility Wind Speed Wind Dir Waves Ship Positions

Northwestern

Owner: Northwestern LLC, Seattle, WA. More information available from US FCC via Universal Licensing System and Coast Guard Vessel Documentation Center.

Last reported at 2016-May-27 23:33 UTC. Time now 2016-May-28 00:07 UTC.
Position N 47°40' W 122°23'.

Length 38 m; draft 4.3 m.

Type: Fishing. MMSI: 367363350.

Date/timePositionNaut miles runAvg speedWind from/ knotsBaromVisibWave heightAir tempDewpointWater temp
2016-May-27 23:33N 47°40' W 122°23'0 0.0
2016-May-27 22:33N 47°40' W 122°23'0 0.0
2016-May-27 21:33N 47°40' W 122°23'0 0.0
2016-May-27 20:33N 47°40' W 122°23'0 0.0
2016-May-27 19:33N 47°40' W 122°23'0 0.0
2016-May-27 18:33N 47°40' W 122°23'0 0.0
2016-May-27 17:33N 47°40' W 122°23'0 0.0
2016-May-27 16:33N 47°40' W 122°23'0 0.0
2016-May-27 15:34N 47°40' W 122°23'0 0.0
2016-May-27 14:33N 47°40' W 122°23'0 0.0
2016-May-27 13:33N 47°40' W 122°23'0 0.0
2016-May-27 12:33N 47°40' W 122°23'0 0.0
2016-May-27 11:33N 47°40' W 122°23'0 0.0
2016-May-27 10:33N 47°40' W 122°23'0 0.0
2016-May-27 09:33N 47°40' W 122°23'0 0.0
2016-May-27 08:33N 47°40' W 122°23'0 0.0
2016-May-27 07:34N 47°40' W 122°23'0 0.0
2016-May-27 06:33N 47°40' W 122°23'0 0.0
2016-May-27 05:33N 47°40' W 122°23'0 0.0
2016-May-27 04:33N 47°40' W 122°23'0 0.0
2016-May-27 03:33N 47°40' W 122°23'0 0.0
2016-May-27 02:33N 47°40' W 122°23'0 0.0
2016-May-27 01:33N 47°40' W 122°23'0 0.0
2016-May-27 00:33N 47°40' W 122°23'0 0.0
2016-May-26 23:33N 47°40' W 122°23'0 0.0
2016-May-26 22:33N 47°40' W 122°23'0 0.0
2016-May-26 21:34N 47°40' W 122°23'0 0.0
2016-May-26 20:33N 47°40' W 122°23'0 0.0
2016-May-26 19:33N 47°40' W 122°23'0 0.0
2016-May-26 18:33N 47°40' W 122°23'0 0.0
2016-May-26 17:33N 47°40' W 122°23'0 0.0
2016-May-26 16:33N 47°40' W 122°23'0 0.0
2016-May-26 15:33N 47°40' W 122°23'0 0.0
2016-May-26 14:33N 47°40' W 122°23'0 0.0
2016-May-26 13:33N 47°40' W 122°23'0 0.0
2016-May-26 12:34N 47°40' W 122°23'0 0.0
2016-May-26 11:33N 47°40' W 122°23'0 0.0
2016-May-26 10:33N 47°40' W 122°23'0 0.0
2016-May-26 09:33N 47°40' W 122°23'0 0.0
2016-May-26 08:34N 47°40' W 122°23'0 0.0
2016-May-26 07:33N 47°40' W 122°23'0 0.4
2016-May-26 06:33N 47°40' W 122°24'5 4.6
2016-May-26 05:33N 47°44' W 122°25'5 5.0
2016-May-26 04:32N 47°50' W 122°25'6 6.1
2016-May-26 03:33N 47°55' W 122°21'1 0.7
2016-May-26 02:33N 47°55' W 122°20'4 4.0
2016-May-26 01:34N 47°59' W 122°18'2 1.5
2016-May-26 00:33N 48°00' W 122°17'6 5.8
2016-May-25 23:33N 47°55' W 122°21'8 8.1
2016-May-25 22:33N 47°48' W 122°25'7 7.0
2016-May-25 21:33N 47°41' W 122°25'1 1.2
2016-May-25 20:33N 47°40' W 122°23'0 0.0
2016-May-25 19:33N 47°40' W 122°23'0 0.0
2016-May-25 18:33N 47°40' W 122°23'0 0.0
2016-May-25 17:33N 47°40' W 122°23'0 0.0
2016-May-25 16:34N 47°40' W 122°23'0 0.0
2016-May-25 15:33N 47°40' W 122°23'0 0.0
2016-May-25 14:33N 47°40' W 122°23'0 0.0
2016-May-25 13:33N 47°40' W 122°23'0 0.0
2016-May-25 12:33N 47°40' W 122°23'0 0.0
2016-May-25 11:33N 47°40' W 122°23'0 0.0
2016-May-25 10:33N 47°40' W 122°23'0 0.0
2016-May-25 09:33N 47°40' W 122°23'0 0.0
2016-May-25 08:33N 47°40' W 122°23'0 0.0
2016-May-25 07:33N 47°40' W 122°23'0 0.0
2016-May-25 06:33N 47°40' W 122°23'0 0.0
2016-May-25 05:33N 47°40' W 122°23'0 0.0
2016-May-25 04:33N 47°40' W 122°23'0 0.0
2016-May-25 03:34N 47°40' W 122°23'0 0.0
2016-May-25 02:34N 47°40' W 122°23'0 0.0
2016-May-25 01:33N 47°40' W 122°23'0 0.0
2016-May-25 00:33N 47°40' W 122°23'0 0.0
2016-May-24 23:33N 47°40' W 122°23'0 0.0
2016-May-24 22:33N 47°40' W 122°23'0 0.0
2016-May-24 21:33N 47°40' W 122°23'0 0.0
2016-May-24 20:33N 47°40' W 122°23'0 0.0
2016-May-24 19:33N 47°40' W 122°23'0 0.0
2016-May-24 18:33N 47°40' W 122°23'0 0.0
2016-May-24 17:33N 47°40' W 122°23'0 0.0
2016-May-24 16:33N 47°40' W 122°23'0 0.0
2016-May-24 15:33N 47°40' W 122°23'0 0.0
2016-May-24 14:33N 47°40' W 122°23'0 0.0
2016-May-24 13:33N 47°40' W 122°23'0 0.0
2016-May-24 12:33N 47°40' W 122°23'0 0.0
2016-May-24 11:34N 47°40' W 122°23'0 0.0
2016-May-24 10:33N 47°40' W 122°23'0 0.0
2016-May-24 09:33N 47°40' W 122°23'0 0.0
2016-May-24 08:33N 47°40' W 122°23'0 0.0
2016-May-24 07:33N 47°40' W 122°23'0 0.0
2016-May-24 06:33N 47°40' W 122°23'0 0.0
2016-May-24 05:33N 47°40' W 122°23'0 0.0
2016-May-24 04:33N 47°40' W 122°23'0 0.0
2016-May-24 03:34N 47°40' W 122°23'0 0.0
2016-May-24 02:33N 47°40' W 122°23'0 0.0
2016-May-24 01:33N 47°40' W 122°23'0 0.0
2016-May-24 00:33N 47°40' W 122°23'0 0.0
2016-May-23 23:33N 47°40' W 122°23'0 0.0
2016-May-23 22:33N 47°40' W 122°23'0 0.0
2016-May-23 21:33N 47°40' W 122°23'0 0.0
2016-May-23 20:33N 47°40' W 122°23'0 0.0
2016-May-23 19:33N 47°40' W 122°23'  

Dump ship's entire track history